createdAt,value
2018-08-19T16:03:43.494Z,26.99
2018-08-19T16:06:11.620Z,26.99
2018-08-19T16:08:39.653Z,27.01
2018-08-19T16:11:08.048Z,27.06
2018-08-19T16:13:36.078Z,27.14
2018-08-19T16:16:05.136Z,27.15
2018-08-19T16:18:33.226Z,27.10
2018-08-19T16:21:03.258Z,27.03
2018-08-19T16:23:31.450Z,26.96
2018-08-19T16:25:59.484Z,26.94
2018-08-19T16:28:27.505Z,26.89
2018-08-19T16:30:55.545Z,26.92
2018-08-19T16:33:23.596Z,26.91
2018-08-19T16:35:51.634Z,26.90
2018-08-19T16:38:19.664Z,26.82
2018-08-19T16:40:47.998Z,26.81
2018-08-19T16:43:16.031Z,26.77
2018-08-19T16:45:44.061Z,26.74
2018-08-19T16:48:12.105Z,26.73
2018-08-19T16:50:40.213Z,26.75
2018-08-19T16:53:08.185Z,26.79
2018-08-19T16:55:36.224Z,26.77
2018-08-19T16:58:04.629Z,26.77
2018-08-19T17:00:32.653Z,26.76
2018-08-19T17:03:00.932Z,26.67
2018-08-19T17:05:31.444Z,26.64
2018-08-19T17:07:59.540Z,26.57
2018-08-19T17:10:28.905Z,26.47
2018-08-19T17:12:57.436Z,26.41
2018-08-19T17:15:25.660Z,26.25
2018-08-19T17:17:53.716Z,26.11
2018-08-19T17:20:21.914Z,26.04
2018-08-19T17:22:49.970Z,25.99
2018-08-19T17:25:18.165Z,25.91
2018-08-19T17:27:46.329Z,25.82
2018-08-19T17:30:18.196Z,25.79
2018-08-19T17:32:50.270Z,25.75
2018-08-19T17:35:18.185Z,25.67
2018-08-19T17:37:46.222Z,25.59
2018-08-19T17:40:14.244Z,25.52
2018-08-19T17:42:43.965Z,25.46
2018-08-19T17:45:12.897Z,25.42
2018-08-19T17:47:40.918Z,25.33
2018-08-19T17:50:11.163Z,25.25
2018-08-19T17:52:39.192Z,25.19
2018-08-19T17:55:07.345Z,25.14
2018-08-19T17:57:35.365Z,25.13
2018-08-19T18:00:03.472Z,25.16
2018-08-19T18:02:31.430Z,25.16
2018-08-19T18:04:59.469Z,25.11
2018-08-19T18:07:28.349Z,25.10
2018-08-19T18:09:58.248Z,25.07
2018-08-19T18:12:26.314Z,25.02
2018-08-19T18:14:54.650Z,25.04
2018-08-19T18:17:22.594Z,25.02
2018-08-19T18:19:50.636Z,25.00
2018-08-19T18:22:19.849Z,24.97
2018-08-19T18:24:53.260Z,24.93
2018-08-19T18:27:21.612Z,24.94
2018-08-19T18:29:49.634Z,24.90
2018-08-19T18:32:17.657Z,24.85
2018-08-19T18:34:45.704Z,24.81
2018-08-19T18:37:13.746Z,24.80
2018-08-19T18:39:43.201Z,24.84
2018-08-19T18:42:13.273Z,24.80
2018-08-19T18:44:41.289Z,24.81
2018-08-19T18:47:09.313Z,24.80
2018-08-19T18:49:37.488Z,24.81
2018-08-19T18:52:21.789Z,24.76
2018-08-19T18:54:49.921Z,24.74
2018-08-19T18:57:17.937Z,24.76
2018-08-19T18:59:46.193Z,24.70
2018-08-19T19:02:14.361Z,24.74
2018-08-19T19:04:42.400Z,24.73
2018-08-19T19:07:10.413Z,24.68
2018-08-19T19:09:43.834Z,24.64
2018-08-19T19:12:12.393Z,24.58
2018-08-19T19:14:40.432Z,24.57
2018-08-19T19:17:08.474Z,24.60
2018-08-19T19:19:43.708Z,24.63
2018-08-19T19:22:11.821Z,24.56
2018-08-19T19:24:40.493Z,24.51
2018-08-19T19:27:09.062Z,24.49
2018-08-19T19:29:37.086Z,24.45
2018-08-19T19:32:16.768Z,24.46
2018-08-19T19:34:44.801Z,24.44
2018-08-19T19:37:13.000Z,24.44
2018-08-19T19:39:41.049Z,24.44
2018-08-19T19:42:09.853Z,24.44
2018-08-19T19:44:37.886Z,24.45
2018-08-19T19:47:07.277Z,24.44
2018-08-19T19:49:43.448Z,24.38
2018-08-19T19:52:11.712Z,24.32
2018-08-19T19:54:39.799Z,24.33
2018-08-19T19:57:07.802Z,24.31
2018-08-19T19:59:35.837Z,24.23
2018-08-19T20:02:04.089Z,24.21
2018-08-19T20:04:34.951Z,24.20
2018-08-19T20:07:03.253Z,24.15
2018-08-19T20:09:34.752Z,24.09
2018-08-19T20:12:02.772Z,24.07
2018-08-19T20:14:30.800Z,24.05
2018-08-19T20:16:58.844Z,24.04
2018-08-19T20:19:26.882Z,24.01
2018-08-19T20:21:55.140Z,23.99
2018-08-19T20:24:23.174Z,23.98
2018-08-19T20:26:51.209Z,23.95
2018-08-19T20:29:19.244Z,23.92
2018-08-19T20:31:47.274Z,23.93
2018-08-19T20:34:15.345Z,23.89
2018-08-19T20:36:43.379Z,23.85
2018-08-19T20:39:11.413Z,23.85
2018-08-19T20:41:39.669Z,23.82
2018-08-19T20:44:08.049Z,23.82
2018-08-19T20:46:37.108Z,23.80
2018-08-19T20:49:05.656Z,23.77
2018-08-19T20:51:33.694Z,23.75
2018-08-19T20:54:01.732Z,23.69
2018-08-19T20:56:29.942Z,23.61
2018-08-19T20:58:57.965Z,23.61
2018-08-19T21:01:28.110Z,23.64
2018-08-19T21:03:56.662Z,23.64
2018-08-19T21:06:24.705Z,23.65
2018-08-19T21:08:52.738Z,23.67
2018-08-19T21:11:20.756Z,23.67
2018-08-19T21:13:49.189Z,23.65
2018-08-19T21:16:17.240Z,23.58
2018-08-19T21:18:45.277Z,23.53
2018-08-19T21:21:13.317Z,23.51
2018-08-19T21:23:41.351Z,23.48
2018-08-19T21:26:09.573Z,23.42
2018-08-19T21:28:37.624Z,23.41
2018-08-19T21:31:05.645Z,23.41
2018-08-19T21:33:33.673Z,23.38
2018-08-19T21:36:01.845Z,23.36
2018-08-19T21:38:29.892Z,23.37
2018-08-19T21:40:58.366Z,23.35
2018-08-19T21:43:27.936Z,23.30
2018-08-19T21:45:56.007Z,23.26
2018-08-19T21:48:24.220Z,23.20
2018-08-19T21:50:52.708Z,23.11
2018-08-19T21:53:20.978Z,23.10
2018-08-19T21:55:50.185Z,23.05
2018-08-19T21:58:18.231Z,22.99
2018-08-19T22:00:48.444Z,23.03
2018-08-19T22:03:22.007Z,22.96
2018-08-19T22:05:52.368Z,22.88
2018-08-19T22:08:22.045Z,22.83
2018-08-19T22:10:50.086Z,22.80
2018-08-19T22:13:18.122Z,22.77
2018-08-19T22:15:46.828Z,22.73
2018-08-19T22:18:17.096Z,22.73
2018-08-19T22:20:58.022Z,22.65
2018-08-19T22:23:31.868Z,22.62
2018-08-19T22:26:00.136Z,22.62
2018-08-19T22:28:28.160Z,22.63
2018-08-19T22:30:56.264Z,22.63
2018-08-19T22:33:24.293Z,22.55
2018-08-19T22:35:52.319Z,22.52
2018-08-19T22:38:22.196Z,22.51
2018-08-19T22:40:50.392Z,22.48
2018-08-19T22:43:19.256Z,22.47
2018-08-19T22:45:47.993Z,22.43
2018-08-19T22:48:30.205Z,22.44
2018-08-19T22:50:58.467Z,22.46
2018-08-19T22:53:26.488Z,22.45
2018-08-19T22:55:54.521Z,22.39
2018-08-19T22:58:22.548Z,22.32
2018-08-19T23:00:50.566Z,22.30
2018-08-19T23:03:18.596Z,22.32
2018-08-19T23:05:46.649Z,22.32
2018-08-19T23:08:17.113Z,22.33
2018-08-19T23:10:45.150Z,22.28
2018-08-19T23:13:28.724Z,22.28
2018-08-19T23:15:56.893Z,22.28
2018-08-19T23:18:24.910Z,22.27
2018-08-19T23:20:52.922Z,22.23
2018-08-19T23:23:20.955Z,22.22
2018-08-19T23:25:48.976Z,22.19
2018-08-19T23:28:17.078Z,22.11
2018-08-19T23:30:45.102Z,22.11
2018-08-19T23:33:13.790Z,22.14
2018-08-19T23:35:41.884Z,22.15
2018-08-19T23:38:09.946Z,22.19
2018-08-19T23:40:37.973Z,22.13
2018-08-19T23:43:06.160Z,22.09
2018-08-19T23:45:34.449Z,22.10
2018-08-19T23:48:02.481Z,22.14
2018-08-19T23:50:30.705Z,22.11
2018-08-19T23:52:58.728Z,22.07
2018-08-19T23:55:26.749Z,22.05
2018-08-19T23:57:54.788Z,21.95
